Time,TemperatureF,DewpointF,PressureIn,WindDirection,WindDirectionDegrees,WindSpeedMPH,WindSpeedGustMPH,Humidity,HourlyPrecipIn,Conditions,Clouds,dailyrainin,SoftwareType,DateUTC
2013-09-05 00:04:00,54.0,48.9,29.95,NNW,328,4.0,9.0,83,0.00,,,0.00,meteohub,2013-09-05 06:04:00,
2013-09-05 00:09:00,54.1,49.1,29.95,NW,326,6.0,9.0,83,0.00,,,0.00,meteohub,2013-09-05 06:09:00,
2013-09-05 00:14:00,54.3,48.9,29.95,NNW,333,7.0,9.0,82,0.00,,,0.00,meteohub,2013-09-05 06:14:00,
2013-09-05 00:19:00,54.1,48.7,29.96,NW,326,3.0,9.0,82,0.00,,,0.00,meteohub,2013-09-05 06:19:00,
2013-09-05 00:24:00,54.1,48.7,29.96,NW,319,2.0,9.0,82,0.00,,,0.00,meteohub,2013-09-05 06:24:00,
2013-09-05 00:29:00,54.1,48.7,29.96,WNW,297,4.0,9.0,82,0.00,,,0.00,meteohub,2013-09-05 06:29:00,
2013-09-05 00:34:00,54.3,48.9,29.96,NW,316,7.0,7.0,82,0.00,,,0.00,meteohub,2013-09-05 06:34:00,
2013-09-05 00:39:00,54.5,49.1,29.96,NNW,343,5.0,9.0,82,0.00,,,0.00,meteohub,2013-09-05 06:39:00,
2013-09-05 00:44:00,54.9,49.1,29.96,NNW,329,4.0,9.0,81,0.00,,,0.00,meteohub,2013-09-05 06:44:00,
2013-09-05 00:49:00,55.0,48.6,29.96,NW,326,4.0,9.0,79,0.00,,,0.00,meteohub,2013-09-05 06:49:00,
2013-09-05 00:54:00,55.4,48.7,29.96,NNW,342,2.0,8.0,78,0.00,,,0.00,meteohub,2013-09-05 06:54:00,
2013-09-05 00:59:00,55.6,48.9,29.96,NNW,333,5.0,8.0,78,0.00,,,0.00,meteohub,2013-09-05 06:59:00,
2013-09-05 01:04:00,55.6,48.6,29.96,NNW,335,4.0,8.0,77,0.00,,,0.00,meteohub,2013-09-05 07:04:00,
2013-09-05 01:10:00,55.6,48.6,29.96,NW,325,2.0,8.0,77,0.00,,,0.00,meteohub,2013-09-05 07:10:00,
2013-09-05 01:15:00,54.9,48.2,29.96,NNW,331,1.0,8.0,78,0.00,,,0.00,meteohub,2013-09-05 07:15:00,
2013-09-05 01:20:00,54.3,48.0,29.96,NW,319,0.0,5.0,79,0.00,,,0.00,meteohub,2013-09-05 07:20:00,
2013-09-05 01:25:00,54.1,48.0,29.97,West,280,2.0,3.0,80,0.00,,,0.00,meteohub,2013-09-05 07:25:00,
2013-09-05 01:30:00,54.7,48.4,29.97,WNW,301,1.0,3.0,79,0.00,,,0.00,meteohub,2013-09-05 07:30:00,
2013-09-05 01:35:00,54.5,47.8,29.97,WNW,296,1.0,3.0,78,0.00,,,0.00,meteohub,2013-09-05 07:35:00,
2013-09-05 01:40:00,53.4,47.1,29.97,NW,325,0.0,3.0,79,0.00,,,0.00,meteohub,2013-09-05 07:40:00,
2013-09-05 01:45:00,53.4,47.5,29.98,WNW,302,3.0,3.0,80,0.00,,,0.00,meteohub,2013-09-05 07:45:00,
2013-09-05 01:50:00,54.3,47.7,29.97,NW,307,3.0,5.0,78,0.00,,,0.00,meteohub,2013-09-05 07:50:00,
2013-09-05 01:55:00,54.3,47.3,29.98,NW,319,5.0,5.0,77,0.00,,,0.00,meteohub,2013-09-05 07:55:00,
2013-09-05 02:00:00,54.5,47.5,29.98,NW,311,4.0,5.0,77,0.00,,,0.00,meteohub,2013-09-05 08:00:00,
2013-09-05 02:05:00,54.9,47.8,29.97,NNW,328,9.0,13.0,77,0.00,,,0.00,meteohub,2013-09-05 08:05:00,
2013-09-05 02:10:00,54.9,48.2,29.98,NNW,328,8.0,13.0,78,0.00,,,0.00,meteohub,2013-09-05 08:10:00,
2013-09-05 02:15:00,55.0,48.6,29.98,NW,319,10.0,13.0,79,0.00,,,0.00,meteohub,2013-09-05 08:15:00,
2013-09-05 02:20:00,54.7,48.4,29.98,NNW,328,12.0,13.0,79,0.00,,,0.00,meteohub,2013-09-05 08:20:00,
2013-09-05 02:26:00,54.7,48.6,29.98,NNW,328,8.0,15.0,80,0.00,,,0.00,meteohub,2013-09-05 08:26:00,
2013-09-05 02:31:00,54.3,48.2,29.98,NW,321,7.0,15.0,80,0.00,,,0.00,meteohub,2013-09-05 08:31:00,
2013-09-05 02:36:00,54.3,48.2,29.98,NNW,340,7.0,15.0,80,0.00,,,0.00,meteohub,2013-09-05 08:36:00,
2013-09-05 02:41:00,54.1,48.4,29.97,NNW,329,6.0,13.0,81,0.00,,,0.00,meteohub,2013-09-05 08:41:00,
2013-09-05 02:46:00,54.0,48.2,29.97,NW,320,9.0,13.0,81,0.00,,,0.00,meteohub,2013-09-05 08:46:00,
2013-09-05 02:51:00,54.0,48.0,29.98,NNW,339,8.0,10.0,80,0.00,,,0.00,meteohub,2013-09-05 08:51:00,
2013-09-05 02:56:00,54.1,47.8,29.98,NW,326,7.0,11.0,79,0.00,,,0.00,meteohub,2013-09-05 08:56:00,
2013-09-05 03:01:00,54.0,47.7,29.98,NW,322,4.0,12.0,79,0.00,,,0.00,meteohub,2013-09-05 09:01:00,
2013-09-05 03:06:00,53.4,47.5,29.98,NNW,340,5.0,12.0,80,0.00,,,0.00,meteohub,2013-09-05 09:06:00,
2013-09-05 03:11:00,53.1,47.7,29.98,NW,321,5.0,11.0,82,0.00,,,0.00,meteohub,2013-09-05 09:11:00,
2013-09-05 03:16:00,52.9,47.8,29.98,NNW,328,3.0,8.0,83,0.00,,,0.00,meteohub,2013-09-05 09:16:00,
2013-09-05 03:21:00,52.3,47.7,29.99,NW,316,2.0,7.0,84,0.00,,,0.00,meteohub,2013-09-05 09:21:00,
2013-09-05 03:26:00,52.2,47.5,29.99,NW,318,2.0,7.0,84,0.00,,,0.00,meteohub,2013-09-05 09:26:00,
2013-09-05 03:31:00,51.6,47.3,29.99,NW,325,3.0,5.0,85,0.00,,,0.00,meteohub,2013-09-05 09:31:00,
2013-09-05 03:36:00,51.4,47.5,29.99,NW,304,1.0,5.0,86,0.00,,,0.00,meteohub,2013-09-05 09:36:00,
2013-09-05 03:41:00,51.6,47.8,29.99,WNW,300,1.0,5.0,87,0.00,,,0.00,meteohub,2013-09-05 09:41:00,
2013-09-05 03:46:00,51.8,47.5,29.98,WNW,298,2.0,5.0,85,0.00,,,0.00,meteohub,2013-09-05 09:46:00,
2013-09-05 03:52:00,52.5,47.5,29.98,WNW,294,0.0,4.0,83,0.00,,,0.00,meteohub,2013-09-05 09:52:00,
2013-09-05 03:57:00,52.9,47.5,29.98,NNW,327,2.0,4.0,82,0.00,,,0.00,meteohub,2013-09-05 09:57:00,
2013-09-05 04:02:00,53.4,47.5,29.99,NNW,336,2.0,4.0,80,0.00,,,0.00,meteohub,2013-09-05 10:02:00,
2013-09-05 04:07:00,53.2,47.5,29.99,NNW,343,0.0,4.0,81,0.00,,,0.00,meteohub,2013-09-05 10:07:00,
2013-09-05 04:12:00,52.9,47.8,29.99,NNE,14,1.0,4.0,83,0.00,,,0.00,meteohub,2013-09-05 10:12:00,
2013-09-05 04:17:00,52.2,47.5,29.99,NW,326,1.0,4.0,84,0.00,,,0.00,meteohub,2013-09-05 10:17:00,
2013-09-05 04:22:00,51.8,47.5,29.98,NNW,327,4.0,4.0,85,0.00,,,0.00,meteohub,2013-09-05 10:22:00,
2013-09-05 04:27:00,51.4,47.1,29.99,NNW,333,4.0,4.0,85,0.00,,,0.00,meteohub,2013-09-05 10:27:00,
2013-09-05 04:32:00,50.7,45.7,29.99,NW,307,2.0,6.0,83,0.00,,,0.00,meteohub,2013-09-05 10:32:00,
2013-09-05 04:37:00,50.2,45.5,29.99,NW,324,3.0,7.0,84,0.00,,,0.00,meteohub,2013-09-05 10:37:00,
2013-09-05 04:42:00,50.2,45.5,29.99,NW,316,5.0,7.0,84,0.00,,,0.00,meteohub,2013-09-05 10:42:00,
2013-09-05 04:47:00,51.3,46.9,29.99,NNW,330,4.0,7.0,85,0.00,,,0.00,meteohub,2013-09-05 10:47:00,
2013-09-05 04:52:00,51.8,46.8,29.99,NW,325,6.0,7.0,83,0.00,,,0.00,meteohub,2013-09-05 10:52:00,
2013-09-05 04:57:00,52.0,46.4,29.99,NW,318,4.0,7.0,81,0.00,,,0.00,meteohub,2013-09-05 10:57:00,
2013-09-05 05:02:00,52.0,46.0,29.99,NNW,330,7.0,7.0,80,0.00,,,0.00,meteohub,2013-09-05 11:02:00,
2013-09-05 05:07:00,52.3,46.0,29.99,NW,323,5.0,9.0,79,0.00,,,0.00,meteohub,2013-09-05 11:07:00,
2013-09-05 05:12:00,52.5,46.2,29.99,NW,319,6.0,9.0,79,0.00,,,0.00,meteohub,2013-09-05 11:12:00,
2013-09-05 05:17:00,52.7,46.0,29.99,NW,324,8.0,10.0,78,0.00,,,0.00,meteohub,2013-09-05 11:17:00,
2013-09-05 05:22:00,52.9,46.6,29.99,NW,326,4.0,10.0,79,0.00,,,0.00,meteohub,2013-09-05 11:22:00,
2013-09-05 05:27:00,52.5,46.2,29.99,NNW,327,6.0,11.0,79,0.00,,,0.00,meteohub,2013-09-05 11:27:00,
2013-09-05 05:32:00,52.2,46.6,29.99,NW,311,6.0,11.0,81,0.00,,,0.00,meteohub,2013-09-05 11:32:00,
2013-09-05 05:37:00,52.3,46.8,29.99,NNW,333,9.0,11.0,81,0.00,,,0.00,meteohub,2013-09-05 11:37:00,
2013-09-05 05:42:00,52.3,46.8,29.99,NW,326,5.0,11.0,81,0.00,,,0.00,meteohub,2013-09-05 11:42:00,
2013-09-05 05:47:00,52.3,46.8,29.99,NNW,335,5.0,10.0,81,0.00,,,0.00,meteohub,2013-09-05 11:47:00,
2013-09-05 05:52:00,52.2,46.6,29.99,NNW,331,6.0,10.0,81,0.00,,,0.00,meteohub,2013-09-05 11:52:00,
2013-09-05 05:57:00,52.0,46.6,29.99,NNW,342,6.0,10.0,82,0.00,,,0.00,meteohub,2013-09-05 11:57:00,
2013-09-05 06:02:00,51.4,46.2,29.99,NNW,331,6.0,11.0,82,0.00,,,0.00,meteohub,2013-09-05 12:02:00,
2013-09-05 06:07:00,51.1,46.4,29.99,NW,321,8.0,12.0,84,0.00,,,0.00,meteohub,2013-09-05 12:07:00,
2013-09-05 06:12:00,50.5,46.2,29.99,NNW,330,9.0,12.0,85,0.00,,,0.00,meteohub,2013-09-05 12:12:00,
2013-09-05 06:17:00,50.4,46.4,29.99,NNW,336,4.0,12.0,86,0.00,,,0.00,meteohub,2013-09-05 12:17:00,
2013-09-05 06:22:00,50.2,46.2,29.99,NNW,337,4.0,10.0,86,0.00,,,0.00,meteohub,2013-09-05 12:22:00,
2013-09-05 06:27:00,50.0,46.0,29.99,NW,319,5.0,11.0,86,0.00,,,0.00,meteohub,2013-09-05 12:27:00,
2013-09-05 06:32:00,50.5,45.9,29.99,NW,304,4.0,11.0,84,0.00,,,0.00,meteohub,2013-09-05 12:32:00,
2013-09-05 06:37:00,50.5,45.3,30.00,NNW,327,6.0,11.0,82,0.00,,,0.00,meteohub,2013-09-05 12:37:00,
2013-09-05 06:42:00,50.5,45.5,30.00,NW,323,9.0,10.0,83,0.00,,,0.00,meteohub,2013-09-05 12:42:00,
2013-09-05 06:48:00,51.3,46.0,30.00,NW,326,8.0,10.0,82,0.00,,,0.00,meteohub,2013-09-05 12:48:00,
2013-09-05 06:53:00,51.4,46.2,30.00,NNW,338,5.0,11.0,82,0.00,,,0.00,meteohub,2013-09-05 12:53:00,
2013-09-05 06:58:00,51.6,46.0,30.00,NNW,333,7.0,11.0,81,0.00,,,0.00,meteohub,2013-09-05 12:58:00,
2013-09-05 07:03:00,52.0,46.4,30.01,NW,326,7.0,11.0,81,0.00,,,0.00,meteohub,2013-09-05 13:03:00,
2013-09-05 07:08:00,52.2,46.2,30.01,NW,317,7.0,11.0,80,0.00,,,0.00,meteohub,2013-09-05 13:08:00,
2013-09-05 07:13:00,52.2,46.2,30.01,NW,316,4.0,11.0,80,0.00,,,0.00,meteohub,2013-09-05 13:13:00,
2013-09-05 07:18:00,52.3,46.4,30.01,North,349,6.0,10.0,80,0.00,,,0.00,meteohub,2013-09-05 13:18:00,
2013-09-05 07:23:00,52.2,46.2,30.01,NNW,328,6.0,8.0,80,0.00,,,0.00,meteohub,2013-09-05 13:23:00,
2013-09-05 07:28:00,52.2,45.9,30.01,NW,326,6.0,8.0,79,0.00,,,0.00,meteohub,2013-09-05 13:28:00,
2013-09-05 07:33:00,52.9,46.6,30.01,NNW,336,7.0,9.0,79,0.00,,,0.00,meteohub,2013-09-05 13:33:00,
2013-09-05 07:38:00,53.4,46.4,30.02,NW,318,5.0,9.0,77,0.00,,,0.00,meteohub,2013-09-05 13:38:00,
2013-09-05 07:43:00,53.6,46.6,30.02,NNW,340,5.0,10.0,77,0.00,,,0.00,meteohub,2013-09-05 13:43:00,
2013-09-05 07:48:00,53.8,46.8,30.02,NNW,328,4.0,10.0,77,0.00,,,0.00,meteohub,2013-09-05 13:48:00,
2013-09-05 07:53:00,53.8,47.1,30.02,NNW,340,4.0,8.0,78,0.00,,,0.00,meteohub,2013-09-05 13:53:00,
2013-09-05 07:58:00,54.1,46.8,30.02,NNW,328,7.0,8.0,76,0.00,,,0.00,meteohub,2013-09-05 13:58:00,
2013-09-05 08:03:00,54.3,47.3,30.02,NNW,338,6.0,8.0,77,0.00,,,0.00,meteohub,2013-09-05 14:03:00,
2013-09-05 08:08:00,54.7,47.7,30.02,NW,314,9.0,9.0,77,0.00,,,0.00,meteohub,2013-09-05 14:08:00,
2013-09-05 08:14:00,54.9,47.8,30.03,NW,326,11.0,11.0,77,0.00,,,0.00,meteohub,2013-09-05 14:14:00,
2013-09-05 08:19:00,55.2,48.2,30.03,NNW,343,12.0,14.0,77,0.00,,,0.00,meteohub,2013-09-05 14:19:00,
2013-09-05 08:24:00,55.6,48.2,30.03,North,356,7.0,14.0,76,0.00,,,0.00,meteohub,2013-09-05 14:24:00,
2013-09-05 08:29:00,55.9,48.6,30.02,NNW,340,6.0,14.0,76,0.00,,,0.00,meteohub,2013-09-05 14:29:00,
2013-09-05 08:34:00,56.1,48.0,30.02,NW,323,9.0,12.0,74,0.00,,,0.00,meteohub,2013-09-05 14:34:00,
2013-09-05 08:39:00,56.7,48.0,30.02,NNW,336,7.0,12.0,73,0.00,,,0.00,meteohub,2013-09-05 14:39:00,
2013-09-05 08:44:00,57.2,48.6,30.02,NNE,13,6.0,11.0,73,0.00,,,0.00,meteohub,2013-09-05 14:44:00,
2013-09-05 08:49:00,57.6,48.6,30.02,NNW,338,8.0,11.0,72,0.00,,,0.00,meteohub,2013-09-05 14:49:00,
2013-09-05 08:54:00,57.7,48.0,30.02,NW,321,8.0,9.0,70,0.00,,,0.00,meteohub,2013-09-05 14:54:00,
2013-09-05 08:59:00,58.5,48.4,30.02,NNW,329,4.0,10.0,69,0.00,,,0.00,meteohub,2013-09-05 14:59:00,
2013-09-05 09:04:00,58.6,48.6,30.02,NW,308,6.0,11.0,69,0.00,,,0.00,meteohub,2013-09-05 15:04:00,
2013-09-05 09:09:00,59.2,49.1,30.01,NW,322,5.0,12.0,69,0.00,,,0.00,meteohub,2013-09-05 15:09:00,
2013-09-05 09:14:00,59.7,49.1,30.01,NNE,20,7.0,12.0,68,0.00,,,0.00,meteohub,2013-09-05 15:14:00,
2013-09-05 09:19:00,60.4,49.1,30.01,NNW,338,4.0,12.0,66,0.00,,,0.00,meteohub,2013-09-05 15:19:00,
2013-09-05 09:24:00,61.0,49.1,30.01,NNE,18,6.0,9.0,65,0.00,,,0.00,meteohub,2013-09-05 15:24:00,
2013-09-05 09:29:00,61.5,49.3,30.01,NNW,338,6.0,9.0,64,0.00,,,0.00,meteohub,2013-09-05 15:29:00,
2013-09-05 09:34:00,61.9,49.1,30.01,NW,321,6.0,9.0,63,0.00,,,0.00,meteohub,2013-09-05 15:34:00,
2013-09-05 09:39:00,62.4,48.4,30.01,NNW,338,6.0,9.0,60,0.00,,,0.00,meteohub,2013-09-05 15:39:00,
2013-09-05 09:45:00,63.1,49.1,30.01,NNW,332,5.0,9.0,60,0.00,,,0.00,meteohub,2013-09-05 15:45:00,
2013-09-05 09:50:00,63.7,47.3,30.01,WNW,288,0.0,8.0,55,0.00,,,0.00,meteohub,2013-09-05 15:50:00,
2013-09-05 09:55:00,63.9,45.9,30.01,North,1,3.0,8.0,52,0.00,,,0.00,meteohub,2013-09-05 15:55:00,
2013-09-05 10:00:00,64.0,48.6,30.01,NW,304,5.0,7.0,57,0.00,,,0.00,meteohub,2013-09-05 16:00:00,
2013-09-05 10:05:00,64.4,47.8,30.01,NNE,22,8.0,9.0,55,0.00,,,0.00,meteohub,2013-09-05 16:05:00,
2013-09-05 10:10:00,64.8,48.7,30.01,NNE,12,6.0,9.0,56,0.00,,,0.00,meteohub,2013-09-05 16:10:00,
2013-09-05 10:15:00,64.9,49.3,30.01,North,351,5.0,9.0,57,0.00,,,0.00,meteohub,2013-09-05 16:15:00,
2013-09-05 10:20:00,65.3,48.7,30.00,NW,321,4.0,9.0,55,0.00,,,0.00,meteohub,2013-09-05 16:20:00,
2013-09-05 10:25:00,65.8,49.3,30.00,NNW,338,4.0,8.0,55,0.00,,,0.00,meteohub,2013-09-05 16:25:00,
2013-09-05 10:30:00,66.4,49.3,30.00,NE,37,7.0,8.0,54,0.00,,,0.00,meteohub,2013-09-05 16:30:00,
2013-09-05 10:35:00,66.6,48.9,30.00,NE,43,4.0,9.0,53,0.00,,,0.00,meteohub,2013-09-05 16:35:00,
2013-09-05 10:40:00,66.6,48.4,29.99,NE,39,5.0,9.0,52,0.00,,,0.00,meteohub,2013-09-05 16:40:00,
2013-09-05 10:45:00,67.3,49.1,29.99,NNE,20,6.0,9.0,52,0.00,,,0.00,meteohub,2013-09-05 16:45:00,
2013-09-05 10:50:00,67.5,48.2,29.99,ENE,59,2.0,9.0,50,0.00,,,0.00,meteohub,2013-09-05 16:50:00,
2013-09-05 10:55:00,67.8,48.0,29.99,NE,44,3.0,9.0,49,0.00,,,0.00,meteohub,2013-09-05 16:55:00,
2013-09-05 11:00:00,68.4,47.8,29.99,NNE,16,3.0,9.0,48,0.00,,,0.00,meteohub,2013-09-05 17:00:00,
2013-09-05 11:06:00,70.0,48.7,29.99,NNE,18,5.0,9.0,47,0.00,,,0.00,meteohub,2013-09-05 17:06:00,
2013-09-05 11:11:00,70.5,46.9,29.99,NNE,12,3.0,7.0,43,0.00,,,0.00,meteohub,2013-09-05 17:11:00,
2013-09-05 11:16:00,71.2,46.9,29.99,ESE,116,3.0,7.0,42,0.00,,,0.00,meteohub,2013-09-05 17:16:00,
2013-09-05 11:21:00,71.8,46.8,29.98,NNE,14,2.0,7.0,41,0.00,,,0.00,meteohub,2013-09-05 17:21:00,
2013-09-05 11:26:00,71.8,46.8,29.98,ENE,64,3.0,5.0,41,0.00,,,0.00,meteohub,2013-09-05 17:26:00,
2013-09-05 11:31:00,73.2,46.0,29.98,ENE,68,4.0,5.0,38,0.00,,,0.00,meteohub,2013-09-05 17:31:00,
2013-09-05 11:36:00,73.6,46.4,29.98,NNW,345,1.0,6.0,38,0.00,,,0.00,meteohub,2013-09-05 17:36:00,
2013-09-05 11:41:00,74.1,46.2,29.98,South,188,2.0,6.0,37,0.00,,,0.00,meteohub,2013-09-05 17:41:00,
2013-09-05 11:46:00,74.7,45.9,29.98,West,269,1.0,8.0,36,0.00,,,0.00,meteohub,2013-09-05 17:46:00,
2013-09-05 11:51:00,75.0,45.5,29.98,WNW,301,2.0,8.0,35,0.00,,,0.00,meteohub,2013-09-05 17:51:00,
2013-09-05 11:56:00,75.0,45.5,29.97,SE,145,0.0,6.0,35,0.00,,,0.00,meteohub,2013-09-05 17:56:00,
2013-09-05 12:01:00,75.9,46.2,29.97,East,96,1.0,5.0,35,0.00,,,0.00,meteohub,2013-09-05 18:01:00,
2013-09-05 12:06:00,76.6,45.3,29.96,West,263,0.0,5.0,33,0.00,,,0.00,meteohub,2013-09-05 18:06:00,
2013-09-05 12:11:00,76.3,44.2,29.96,ESE,103,1.0,8.0,32,0.00,,,0.00,meteohub,2013-09-05 18:11:00,
2013-09-05 12:17:00,76.5,45.1,29.96,NE,56,0.0,8.0,33,0.00,,,0.00,meteohub,2013-09-05 18:17:00,
2013-09-05 12:22:00,77.7,44.6,29.96,SSE,167,4.0,8.0,31,0.00,,,0.00,meteohub,2013-09-05 18:22:00,
2013-09-05 12:27:00,78.1,43.2,29.96,SE,136,1.0,7.0,29,0.00,,,0.00,meteohub,2013-09-05 18:27:00,
2013-09-05 12:32:00,78.8,43.9,29.95,SE,139,7.0,7.0,29,0.00,,,0.00,meteohub,2013-09-05 18:32:00,
2013-09-05 12:37:00,78.4,43.5,29.95,NE,44,1.0,11.0,29,0.00,,,0.00,meteohub,2013-09-05 18:37:00,
2013-09-05 12:42:00,78.3,42.4,29.95,ESE,115,8.0,11.0,28,0.00,,,0.00,meteohub,2013-09-05 18:42:00,
2013-09-05 12:47:00,78.4,41.7,29.95,SSE,156,4.0,13.0,27,0.00,,,0.00,meteohub,2013-09-05 18:47:00,
2013-09-05 12:52:00,78.6,40.8,29.94,ENE,78,4.0,13.0,26,0.00,,,0.00,meteohub,2013-09-05 18:52:00,
2013-09-05 12:57:00,77.7,41.0,29.94,East,84,2.0,13.0,27,0.00,,,0.00,meteohub,2013-09-05 18:57:00,
2013-09-05 13:02:00,78.1,41.4,29.94,SSE,162,8.0,12.0,27,0.00,,,0.00,meteohub,2013-09-05 19:02:00,
2013-09-05 13:07:00,78.6,41.9,29.94,South,173,2.0,13.0,27,0.00,,,0.00,meteohub,2013-09-05 19:07:00,
2013-09-05 13:12:00,79.3,41.5,29.94,SE,136,6.0,13.0,26,0.00,,,0.00,meteohub,2013-09-05 19:12:00,
2013-09-05 13:17:00,79.2,41.4,29.93,ESE,102,6.0,13.0,26,0.00,,,0.00,meteohub,2013-09-05 19:17:00,
2013-09-05 13:22:00,79.2,41.4,29.93,SSE,160,9.0,12.0,26,0.00,,,0.00,meteohub,2013-09-05 19:22:00,
2013-09-05 13:27:00,79.3,39.4,29.93,ESE,111,4.0,10.0,24,0.00,,,0.00,meteohub,2013-09-05 19:27:00,
2013-09-05 13:32:00,79.5,40.6,29.93,ESE,121,5.0,10.0,25,0.00,,,0.00,meteohub,2013-09-05 19:32:00,
2013-09-05 13:37:00,80.4,40.3,29.93,SE,129,3.0,12.0,24,0.00,,,0.00,meteohub,2013-09-05 19:37:00,
2013-09-05 13:42:00,80.8,40.6,29.93,SSW,193,1.0,12.0,24,0.00,,,0.00,meteohub,2013-09-05 19:42:00,
2013-09-05 13:47:00,80.2,40.1,29.92,SE,124,2.0,11.0,24,0.00,,,0.00,meteohub,2013-09-05 19:47:00,
2013-09-05 13:52:00,80.1,40.1,29.92,East,98,6.0,10.0,24,0.00,,,0.00,meteohub,2013-09-05 19:52:00,
2013-09-05 13:57:00,79.9,39.9,29.91,SE,136,7.0,13.0,24,0.00,,,0.00,meteohub,2013-09-05 19:57:00,
2013-09-05 14:02:00,80.8,39.6,29.91,ESE,120,9.0,15.0,23,0.00,,,0.00,meteohub,2013-09-05 20:02:00,
2013-09-05 14:07:00,80.2,39.0,29.91,SE,135,7.0,18.0,23,0.00,,,0.00,meteohub,2013-09-05 20:07:00,
2013-09-05 14:12:00,80.2,39.0,29.91,SE,127,10.0,18.0,23,0.00,,,0.00,meteohub,2013-09-05 20:12:00,
2013-09-05 14:17:00,80.6,38.3,29.91,ENE,71,2.0,17.0,22,0.00,,,0.00,meteohub,2013-09-05 20:17:00,
2013-09-05 14:22:00,81.0,38.5,29.91,SE,126,7.0,16.0,22,0.00,,,0.00,meteohub,2013-09-05 20:22:00,
2013-09-05 14:27:00,81.3,37.6,29.91,SSE,152,8.0,13.0,21,0.00,,,0.00,meteohub,2013-09-05 20:27:00,
2013-09-05 14:32:00,81.9,38.1,29.91,ESE,119,13.0,15.0,21,0.00,,,0.00,meteohub,2013-09-05 20:32:00,
2013-09-05 14:37:00,81.9,36.9,29.91,SSE,150,6.0,16.0,20,0.00,,,0.00,meteohub,2013-09-05 20:37:00,
2013-09-05 14:42:00,81.7,36.7,29.90,ESE,114,7.0,16.0,20,0.00,,,0.00,meteohub,2013-09-05 20:42:00,
2013-09-05 14:47:00,81.7,35.4,29.90,SSE,166,1.0,15.0,19,0.00,,,0.00,meteohub,2013-09-05 20:47:00,
2013-09-05 14:52:00,81.3,35.1,29.90,SE,129,5.0,15.0,19,0.00,,,0.00,meteohub,2013-09-05 20:52:00,
2013-09-05 14:57:00,81.3,35.1,29.89,SE,146,11.0,17.0,19,0.00,,,0.00,meteohub,2013-09-05 20:57:00,
2013-09-05 15:02:00,81.1,35.1,29.90,South,170,10.0,17.0,19,0.00,,,0.00,meteohub,2013-09-05 21:02:00,
2013-09-05 15:07:00,81.5,35.2,29.90,SSE,152,5.0,17.0,19,0.00,,,0.00,meteohub,2013-09-05 21:07:00,
2013-09-05 15:12:00,82.0,35.8,29.89,WSW,249,0.0,17.0,19,0.00,,,0.00,meteohub,2013-09-05 21:12:00,
2013-09-05 15:17:00,82.6,34.7,29.89,SSE,166,15.0,15.0,18,0.00,,,0.00,meteohub,2013-09-05 21:17:00,
2013-09-05 15:22:00,82.2,34.5,29.89,SE,124,3.0,16.0,18,0.00,,,0.00,meteohub,2013-09-05 21:22:00,
2013-09-05 15:27:00,82.4,36.0,29.89,ESE,103,6.0,16.0,19,0.00,,,0.00,meteohub,2013-09-05 21:27:00,
2013-09-05 15:32:00,82.2,34.5,29.89,South,186,9.0,16.0,18,0.00,,,0.00,meteohub,2013-09-05 21:32:00,
2013-09-05 15:37:00,82.9,33.6,29.89,SSW,194,12.0,15.0,17,0.00,,,0.00,meteohub,2013-09-05 21:37:00,
2013-09-05 15:42:00,82.6,33.4,29.89,ESE,110,3.0,15.0,17,0.00,,,0.00,meteohub,2013-09-05 21:42:00,
2013-09-05 15:47:00,82.8,34.9,29.88,SSW,193,8.0,14.0,18,0.00,,,0.00,meteohub,2013-09-05 21:47:00,
2013-09-05 15:52:00,83.1,33.8,29.88,SE,138,7.0,18.0,17,0.00,,,0.00,meteohub,2013-09-05 21:52:00,
2013-09-05 15:57:00,83.1,33.8,29.88,ESE,120,4.0,18.0,17,0.00,,,0.00,meteohub,2013-09-05 21:57:00,
2013-09-05 16:02:00,83.1,32.4,29.88,SE,146,12.0,15.0,16,0.00,,,0.00,meteohub,2013-09-05 22:02:00,
2013-09-05 16:07:00,83.1,32.4,29.88,SSE,153,9.0,17.0,16,0.00,,,0.00,meteohub,2013-09-05 22:07:00,
2013-09-05 16:12:00,83.1,32.4,29.88,SSW,195,5.0,17.0,16,0.00,,,0.00,meteohub,2013-09-05 22:12:00,
2013-09-05 16:17:00,83.5,30.9,29.88,South,190,5.0,17.0,15,0.00,,,0.00,meteohub,2013-09-05 22:17:00,
2013-09-05 16:22:00,83.5,30.9,29.88,SSE,149,8.0,14.0,15,0.00,,,0.00,meteohub,2013-09-05 22:22:00,
2013-09-05 16:27:00,83.3,30.7,29.88,SSE,147,6.0,15.0,15,0.00,,,0.00,meteohub,2013-09-05 22:27:00,
2013-09-05 16:32:00,83.1,32.4,29.88,SE,135,15.0,15.0,16,0.00,,,0.00,meteohub,2013-09-05 22:32:00,
2013-09-05 16:37:00,82.9,32.2,29.88,SSE,166,5.0,16.0,16,0.00,,,0.00,meteohub,2013-09-05 22:37:00,
2013-09-05 16:42:00,82.8,33.4,29.88,South,177,7.0,16.0,17,0.00,,,0.00,meteohub,2013-09-05 22:42:00,
2013-09-05 16:47:00,83.3,34.0,29.87,South,176,14.0,16.0,17,0.00,,,0.00,meteohub,2013-09-05 22:47:00,
2013-09-05 16:52:00,83.5,34.2,29.87,SSW,198,3.0,14.0,17,0.00,,,0.00,meteohub,2013-09-05 22:52:00,
2013-09-05 16:57:00,83.5,34.2,29.87,SE,135,7.0,15.0,17,0.00,,,0.00,meteohub,2013-09-05 22:57:00,
2013-09-05 17:02:00,83.1,33.8,29.87,SE,145,12.0,17.0,17,0.00,,,0.00,meteohub,2013-09-05 23:02:00,
2013-09-05 17:07:00,82.8,33.4,29.87,South,188,5.0,17.0,17,0.00,,,0.00,meteohub,2013-09-05 23:07:00,
2013-09-05 17:12:00,82.8,33.4,29.86,SSE,160,6.0,17.0,17,0.00,,,0.00,meteohub,2013-09-05 23:12:00,
2013-09-05 17:17:00,82.9,35.1,29.86,ESE,113,6.0,14.0,18,0.00,,,0.00,meteohub,2013-09-05 23:17:00,
2013-09-05 17:22:00,83.3,35.4,29.86,SSE,150,7.0,14.0,18,0.00,,,0.00,meteohub,2013-09-05 23:22:00,
2013-09-05 17:27:00,82.9,36.5,29.86,SSE,149,8.0,14.0,19,0.00,,,0.00,meteohub,2013-09-05 23:27:00,
2013-09-05 17:32:00,82.8,37.6,29.86,SSE,156,13.0,15.0,20,0.00,,,0.00,meteohub,2013-09-05 23:32:00,
2013-09-05 17:37:00,82.2,38.5,29.86,South,187,8.0,17.0,21,0.00,,,0.00,meteohub,2013-09-05 23:37:00,
2013-09-05 17:42:00,82.0,39.4,29.85,SE,142,8.0,17.0,22,0.00,,,0.00,meteohub,2013-09-05 23:42:00,
2013-09-05 17:47:00,81.7,40.3,29.86,SW,223,6.0,17.0,23,0.00,,,0.00,meteohub,2013-09-05 23:47:00,
2013-09-05 17:52:00,81.3,39.9,29.85,South,169,12.0,17.0,23,0.00,,,0.00,meteohub,2013-09-05 23:52:00,
2013-09-05 17:57:00,81.0,39.7,29.86,SSE,163,9.0,18.0,23,0.00,,,0.00,meteohub,2013-09-05 23:57:00,
2013-09-05 18:02:00,80.6,40.5,29.85,SSW,193,5.0,18.0,24,0.00,,,0.00,meteohub,2013-09-06 00:02:00,
2013-09-05 18:07:00,80.2,41.2,29.85,SE,131,11.0,18.0,25,0.00,,,0.00,meteohub,2013-09-06 00:07:00,
2013-09-05 18:12:00,79.9,41.9,29.84,South,176,5.0,15.0,26,0.00,,,0.00,meteohub,2013-09-06 00:12:00,
2013-09-05 18:17:00,79.3,41.5,29.85,WNW,289,13.0,18.0,26,0.00,,,0.00,meteohub,2013-09-06 00:17:00,
2013-09-05 18:22:00,79.2,42.3,29.84,SE,124,12.0,18.0,27,0.00,,,0.00,meteohub,2013-09-06 00:22:00,
2013-09-05 18:27:00,78.6,41.9,29.84,SE,136,12.0,18.0,27,0.00,,,0.00,meteohub,2013-09-06 00:27:00,
2013-09-05 18:32:00,78.4,41.7,29.84,SE,134,6.0,17.0,27,0.00,,,0.00,meteohub,2013-09-06 00:32:00,
2013-09-05 18:37:00,78.3,41.5,29.84,ESE,112,14.0,17.0,27,0.00,,,0.00,meteohub,2013-09-06 00:37:00,
2013-09-05 18:42:00,78.1,41.4,29.84,SSW,208,3.0,17.0,27,0.00,,,0.00,meteohub,2013-09-06 00:42:00,
2013-09-05 18:47:00,77.5,41.9,29.84,SSE,147,7.0,17.0,28,0.00,,,0.00,meteohub,2013-09-06 00:47:00,
2013-09-05 18:52:00,76.6,42.1,29.85,SSW,203,9.0,17.0,29,0.00,,,0.00,meteohub,2013-09-06 00:52:00,
2013-09-05 18:57:00,75.9,41.4,29.85,ESE,117,8.0,17.0,29,0.00,,,0.00,meteohub,2013-09-06 00:57:00,
2013-09-05 19:02:00,75.6,41.0,29.85,South,186,8.0,15.0,29,0.00,,,0.00,meteohub,2013-09-06 01:02:00,
2013-09-05 19:07:00,75.2,41.7,29.86,West,259,5.0,14.0,30,0.00,,,0.00,meteohub,2013-09-06 01:07:00,
2013-09-05 19:12:00,74.8,41.4,29.86,SSW,195,4.0,13.0,30,0.00,,,0.00,meteohub,2013-09-06 01:12:00,
2013-09-05 19:17:00,74.5,41.0,29.86,WSW,250,10.0,13.0,30,0.00,,,0.00,meteohub,2013-09-06 01:17:00,
2013-09-05 19:22:00,74.1,40.6,29.86,West,280,4.0,13.0,30,0.00,,,0.00,meteohub,2013-09-06 01:22:00,
2013-09-05 19:27:00,73.8,41.2,29.86,SE,134,3.0,11.0,31,0.00,,,0.00,meteohub,2013-09-06 01:27:00,
2013-09-05 19:32:00,73.6,41.0,29.86,SSW,212,4.0,10.0,31,0.00,,,0.00,meteohub,2013-09-06 01:32:00,
2013-09-05 19:37:00,73.2,40.8,29.86,South,174,4.0,9.0,31,0.00,,,0.00,meteohub,2013-09-06 01:37:00,
2013-09-05 19:42:00,73.2,40.8,29.86,SW,230,3.0,9.0,31,0.00,,,0.00,meteohub,2013-09-06 01:42:00,
2013-09-05 19:47:00,73.0,40.6,29.87,SW,228,2.0,8.0,31,0.00,,,0.00,meteohub,2013-09-06 01:47:00,
2013-09-05 19:52:00,72.9,40.5,29.87,SW,221,3.0,8.0,31,0.00,,,0.00,meteohub,2013-09-06 01:52:00,
2013-09-05 19:57:00,72.9,40.5,29.87,SW,222,4.0,7.0,31,0.00,,,0.00,meteohub,2013-09-06 01:57:00,
2013-09-05 20:02:00,72.9,39.6,29.87,SSE,159,4.0,9.0,30,0.00,,,0.00,meteohub,2013-09-06 02:02:00,
2013-09-05 20:07:00,72.7,40.3,29.87,SSE,150,4.0,9.0,31,0.00,,,0.00,meteohub,2013-09-06 02:07:00,
2013-09-05 20:12:00,72.5,39.4,29.87,South,190,2.0,8.0,30,0.00,,,0.00,meteohub,2013-09-06 02:12:00,
2013-09-05 20:17:00,72.3,39.2,29.87,SE,132,3.0,8.0,30,0.00,,,0.00,meteohub,2013-09-06 02:17:00,
2013-09-05 20:22:00,72.3,39.2,29.87,ESE,122,5.0,8.0,30,0.00,,,0.00,meteohub,2013-09-06 02:22:00,
2013-09-05 20:27:00,72.3,39.2,29.87,SSW,210,2.0,8.0,30,0.00,,,0.00,meteohub,2013-09-06 02:27:00,
2013-09-05 20:32:00,72.1,39.0,29.88,SW,226,2.0,8.0,30,0.00,,,0.00,meteohub,2013-09-06 02:32:00,
2013-09-05 20:37:00,72.0,38.8,29.88,South,169,4.0,10.0,30,0.00,,,0.00,meteohub,2013-09-06 02:37:00,
2013-09-05 20:43:00,72.0,37.9,29.88,SSW,210,4.0,10.0,29,0.00,,,0.00,meteohub,2013-09-06 02:43:00,
2013-09-05 20:48:00,71.8,38.7,29.88,WSW,255,3.0,13.0,30,0.00,,,0.00,meteohub,2013-09-06 02:48:00,
2013-09-05 20:53:00,71.6,38.5,29.88,SW,226,5.0,13.0,30,0.00,,,0.00,meteohub,2013-09-06 02:53:00,
2013-09-05 20:58:00,71.2,39.0,29.88,SW,224,1.0,13.0,31,0.00,,,0.00,meteohub,2013-09-06 02:58:00,
2013-09-05 21:03:00,71.1,38.8,29.88,SW,224,3.0,7.0,31,0.00,,,0.00,meteohub,2013-09-06 03:03:00,
2013-09-05 21:08:00,70.9,38.7,29.88,WSW,252,4.0,7.0,31,0.00,,,0.00,meteohub,2013-09-06 03:08:00,
2013-09-05 21:13:00,70.5,38.5,29.88,SW,236,7.0,7.0,31,0.00,,,0.00,meteohub,2013-09-06 03:13:00,
2013-09-05 21:18:00,70.5,38.5,29.88,West,262,6.0,8.0,31,0.00,,,0.00,meteohub,2013-09-06 03:18:00,
2013-09-05 21:23:00,70.5,38.5,29.89,WSW,243,4.0,8.0,31,0.00,,,0.00,meteohub,2013-09-06 03:23:00,
2013-09-05 21:28:00,70.3,38.3,29.89,SW,224,5.0,8.0,31,0.00,,,0.00,meteohub,2013-09-06 03:28:00,
2013-09-05 21:33:00,70.3,38.3,29.89,SSW,212,5.0,8.0,31,0.00,,,0.00,meteohub,2013-09-06 03:33:00,
2013-09-05 21:38:00,70.2,38.8,29.89,SW,224,5.0,8.0,32,0.00,,,0.00,meteohub,2013-09-06 03:38:00,
2013-09-05 21:43:00,70.2,38.8,29.89,SW,218,5.0,9.0,32,0.00,,,0.00,meteohub,2013-09-06 03:43:00,
2013-09-05 21:48:00,70.2,38.1,29.89,SW,233,4.0,9.0,31,0.00,,,0.00,meteohub,2013-09-06 03:48:00,
2013-09-05 21:54:00,70.2,38.1,29.89,SW,236,6.0,9.0,31,0.00,,,0.00,meteohub,2013-09-06 03:54:00,
2013-09-05 21:59:00,69.8,38.7,29.89,SW,236,4.0,7.0,32,0.00,,,0.00,meteohub,2013-09-06 03:59:00,
2013-09-05 22:01:00,69.6,38.5,29.89,WSW,242,5.0,7.0,32,0.00,,,0.00,meteohub,2013-09-06 04:01:00,
2013-09-05 22:02:00,69.6,38.5,29.89,WSW,245,4.0,7.0,32,0.00,,,0.00,meteohub,2013-09-06 04:02:00,
2013-09-05 22:05:00,69.6,37.6,29.89,SW,235,4.0,6.0,31,0.00,,,0.00,meteohub,2013-09-06 04:05:00,
2013-09-05 22:09:00,69.6,37.6,29.89,WSW,243,4.0,6.0,31,0.00,,,0.00,meteohub,2013-09-06 04:09:00,
2013-09-05 22:14:00,69.4,37.4,29.89,SW,228,4.0,6.0,31,0.00,,,0.00,meteohub,2013-09-06 04:14:00,
2013-09-05 22:19:00,69.4,37.4,29.89,SW,229,3.0,6.0,31,0.00,,,0.00,meteohub,2013-09-06 04:19:00,
2013-09-05 22:24:00,69.4,37.4,29.89,SW,232,3.0,5.0,31,0.00,,,0.00,meteohub,2013-09-06 04:24:00,
2013-09-05 22:29:00,69.6,37.6,29.89,WSW,257,1.0,5.0,31,0.00,,,0.00,meteohub,2013-09-06 04:29:00,
2013-09-05 22:34:00,69.3,38.1,29.89,NE,39,1.0,5.0,32,0.00,,,0.00,meteohub,2013-09-06 04:34:00,
2013-09-05 22:39:00,68.0,38.7,29.89,NE,39,0.0,4.0,34,0.00,,,0.00,meteohub,2013-09-06 04:39:00,
2013-09-05 22:44:00,67.1,38.5,29.88,North,0,0.0,3.0,35,0.00,,,0.00,meteohub,2013-09-06 04:44:00,
2013-09-05 22:50:00,66.7,38.3,29.88,East,86,0.0,2.0,35,0.00,,,0.00,meteohub,2013-09-06 04:50:00,
2013-09-05 22:55:00,66.9,38.3,29.88,East,84,0.0,1.0,35,0.00,,,0.00,meteohub,2013-09-06 04:55:00,
2013-09-05 23:00:00,66.9,38.3,29.88,East,85,0.0,2.0,35,0.00,,,0.00,meteohub,2013-09-06 05:00:00,
2013-09-05 23:05:00,66.9,38.3,29.88,East,84,0.0,2.0,35,0.00,,,0.00,meteohub,2013-09-06 05:05:00,
2013-09-05 23:10:00,66.7,38.3,29.89,East,83,1.0,1.0,35,0.00,,,0.00,meteohub,2013-09-06 05:10:00,
2013-09-05 23:15:00,66.9,37.6,29.89,NNE,31,2.0,3.0,34,0.00,,,0.00,meteohub,2013-09-06 05:15:00,
2013-09-05 23:20:00,66.9,37.6,29.89,East,81,1.0,3.0,34,0.00,,,0.00,meteohub,2013-09-06 05:20:00,
2013-09-05 23:25:00,67.3,37.9,29.88,NNW,345,0.0,3.0,34,0.00,,,0.00,meteohub,2013-09-06 05:25:00,
2013-09-05 23:30:00,67.5,37.4,29.89,NNE,14,1.0,3.0,33,0.00,,,0.00,meteohub,2013-09-06 05:30:00,
2013-09-05 23:35:00,67.3,37.9,29.89,NNW,344,1.0,2.0,34,0.00,,,0.00,meteohub,2013-09-06 05:35:00,
2013-09-05 23:40:00,66.4,37.2,29.88,NNW,343,0.0,2.0,34,0.00,,,0.00,meteohub,2013-09-06 05:40:00,
2013-09-05 23:45:00,66.4,37.2,29.89,NNW,340,1.0,2.0,34,0.00,,,0.00,meteohub,2013-09-06 05:45:00,
2013-09-05 23:50:00,66.6,38.1,29.88,North,7,1.0,2.0,35,0.00,,,0.00,meteohub,2013-09-06 05:50:00,
2013-09-05 23:56:00,66.7,38.3,29.88,North,9,0.0,2.0,35,0.00,,,0.00,meteohub,2013-09-06 05:56:00,